Time;durP1;ratioP1;P1;durP2;ratioP2;P2;SDS_P1;SDS_P2;PMS_P1;PMS_P2;Temp;Humidity;BMP_temperature;BMP_pressure;BME280_temperature;BME280_humidity;BME280_pressure;Samples;Min_cycle;Max_cycle;Signal;HPM_P1;HPM_P2
2021/03/05 00:00:51;;;;;;;17.50;4.13;;;4.00;83.80;;;;;;5044416;28;20471;-71
2021/03/05 00:03:17;;;;;;;25.17;3.90;;;4.00;83.60;;;;;;5042250;28;20384;-71
2021/03/05 00:05:43;;;;;;;14.30;2.90;;;4.00;83.50;;;;;;5034782;28;20435;-70
2021/03/05 00:08:11;;;;;;;13.52;3.10;;;4.00;83.70;;;;;;5044301;28;20098;-71
2021/03/05 00:10:40;;;;;;;17.38;3.17;;;4.00;83.60;;;;;;5048981;28;20029;-70
2021/03/05 00:13:06;;;;;;;16.13;4.18;;;4.10;83.50;;;;;;5040638;28;20395;-71
2021/03/05 00:15:35;;;;;;;16.63;4.60;;;4.00;83.40;;;;;;5045238;28;20037;-70
2021/03/05 00:18:02;;;;;;;15.25;4.00;;;4.00;83.50;;;;;;5043523;28;20029;-72
2021/03/05 00:20:29;;;;;;;15.35;3.20;;;4.10;83.30;;;;;;5046208;28;20032;-71
2021/03/05 00:22:56;;;;;;;14.95;3.38;;;4.10;83.30;;;;;;5047838;28;20033;-70
2021/03/05 00:25:21;;;;;;;17.60;4.07;;;4.10;83.40;;;;;;5035467;28;20592;-70
2021/03/05 00:27:48;;;;;;;17.00;3.60;;;4.10;83.40;;;;;;5043385;28;20123;-70
2021/03/05 00:30:14;;;;;;;15.25;3.60;;;4.10;83.40;;;;;;5041686;28;20472;-71
2021/03/05 00:32:40;;;;;;;12.85;3.85;;;4.10;83.50;;;;;;5045270;28;20405;-71
2021/03/05 00:35:08;;;;;;;16.65;4.10;;;4.10;83.40;;;;;;5041661;28;20040;-71
2021/03/05 00:37:35;;;;;;;17.67;3.53;;;4.10;83.20;;;;;;5045107;28;20032;-70
2021/03/05 00:40:01;;;;;;;27.15;5.15;;;4.10;83.20;;;;;;5046729;28;20033;-72
2021/03/05 00:42:27;;;;;;;21.10;3.53;;;4.10;83.10;;;;;;5046402;28;20033;-70
2021/03/05 00:44:52;;;;;;;19.88;4.35;;;4.10;83.00;;;;;;5041991;28;20017;-74
2021/03/05 00:47:18;;;;;;;28.00;3.85;;;4.10;83.20;;;;;;5043970;28;20128;-71
2021/03/05 00:49:44;;;;;;;20.63;3.50;;;4.10;83.30;;;;;;5068327;28;20037;-71
2021/03/05 00:52:09;;;;;;;15.80;4.47;;;4.10;82.60;;;;;;5056898;28;20090;-72
2021/03/05 00:54:35;;;;;;;22.17;4.07;;;4.10;82.70;;;;;;5064149;28;20044;-70
2021/03/05 00:57:01;;;;;;;20.63;4.63;;;4.10;82.70;;;;;;5061718;28;20031;-74
2021/03/05 00:59:26;;;;;;;16.85;3.30;;;4.10;82.90;;;;;;5058973;28;20037;-70
2021/03/05 01:01:52;;;;;;;20.45;4.03;;;4.10;82.90;;;;;;5058072;28;20035;-70
2021/03/05 01:04:18;;;;;;;12.45;3.42;;;4.10;83.10;;;;;;5062485;28;20043;-71
2021/03/05 01:06:44;;;;;;;15.18;3.47;;;4.10;83.00;;;;;;5061411;28;20040;-72
2021/03/05 01:09:09;;;;;;;16.40;3.22;;;4.10;82.90;;;;;;5064597;28;20037;-71
2021/03/05 01:11:35;;;;;;;19.92;3.15;;;4.10;83.00;;;;;;5063683;28;20044;-70
2021/03/05 01:14:01;;;;;;;21.55;5.10;;;4.10;82.90;;;;;;5060518;28;20047;-71
2021/03/05 01:16:27;;;;;;;18.63;3.63;;;4.10;82.90;;;;;;5058824;28;20120;-71
2021/03/05 01:18:53;;;;;;;15.55;3.47;;;4.10;82.90;;;;;;5055349;28;20112;-71
2021/03/05 01:21:19;;;;;;;22.17;3.83;;;4.10;82.80;;;;;;5059597;28;20052;-70
2021/03/05 01:23:45;;;;;;;17.73;3.95;;;4.10;82.80;;;;;;5058326;28;20075;-71
2021/03/05 01:26:11;;;;;;;16.30;3.65;;;4.10;82.60;;;;;;5064382;28;20086;-70
2021/03/05 01:28:40;;;;;;;17.40;3.63;;;4.10;82.70;;;;;;5063011;28;20395;-70
2021/03/05 01:31:06;;;;;;;16.63;4.28;;;4.10;82.60;;;;;;5053081;28;20048;-71
2021/03/05 01:33:32;;;;;;;15.45;3.92;;;4.10;82.70;;;;;;5057474;28;20053;-70
2021/03/05 01:35:58;;;;;;;16.17;4.20;;;4.10;82.70;;;;;;5059189;28;20379;-70
2021/03/05 01:38:23;;;;;;;16.27;3.97;;;4.10;82.80;;;;;;5063404;28;20448;-72
2021/03/05 01:40:49;;;;;;;18.52;4.13;;;4.10;82.50;;;;;;5062815;28;20048;-71
2021/03/05 01:43:17;;;;;;;15.88;4.35;;;4.00;82.30;;;;;;5058769;28;20036;-71
2021/03/05 01:45:43;;;;;;;17.77;3.55;;;4.10;81.70;;;;;;5062806;28;20032;-70
2021/03/05 01:48:13;;;;;;;15.13;3.28;;;4.10;81.60;;;;;;5057141;28;20059;-72
2021/03/05 01:51:06;;;;;;;13.43;4.05;;;4.10;80.90;;;;;;5063542;28;20040;-70
2021/03/05 01:53:32;;;;;;;16.27;4.00;;;4.10;80.10;;;;;;5055895;28;20558;-71
2021/03/05 01:55:59;;;;;;;12.07;3.75;;;4.10;80.10;;;;;;5063136;28;20056;-70
2021/03/05 01:58:25;;;;;;;13.68;4.05;;;4.10;77.90;;;;;;5049279;28;20029;-70
2021/03/05 02:01:06;;;;;;;13.40;4.07;;;4.10;77.00;;;;;;5066253;28;20032;-71
2021/03/05 02:03:32;;;;;;;14.38;4.30;;;4.10;76.00;;;;;;5053352;28;20044;-71
2021/03/05 02:05:58;;;;;;;17.08;4.95;;;4.10;76.00;;;;;;5048109;28;20025;-73
2021/03/05 02:08:24;;;;;;;14.75;5.00;;;4.20;76.00;;;;;;5041331;28;20189;-71
2021/03/05 02:10:49;;;;;;;16.80;4.30;;;4.20;75.20;;;;;;5044235;28;20044;-69
2021/03/05 02:13:15;;;;;;;17.67;4.72;;;4.10;74.30;;;;;;5037758;28;20045;-69
2021/03/05 02:15:42;;;;;;;15.80;5.00;;;4.20;74.50;;;;;;5040917;28;20116;-69
2021/03/05 02:18:10;;;;;;;12.60;5.30;;;4.10;73.00;;;;;;5053891;28;20550;-70
2021/03/05 02:20:47;;;;;;;13.90;5.40;;;4.20;71.40;;;;;;5056619;28;20033;-70
2021/03/05 02:23:35;;;;;;;16.35;5.93;;;4.10;71.40;;;;;;5060588;28;20052;-70
2021/03/05 02:26:52;;;;;;;13.23;6.00;;;4.20;70.90;;;;;;5057665;28;20036;-71
2021/03/05 02:29:32;;;;;;;12.77;5.38;;;4.20;69.60;;;;;;5050639;28;20037;-70
2021/03/05 02:32:09;;;;;;;12.13;5.55;;;4.20;69.30;;;;;;5057764;28;20029;-70
2021/03/05 02:34:47;;;;;;;8.60;4.95;;;4.20;67.70;;;;;;5057043;28;20135;-70
2021/03/05 02:37:14;;;;;;;12.75;5.20;;;4.20;68.40;;;;;;5060334;28;20094;-70
2021/03/05 02:39:49;;;;;;;13.48;5.18;;;4.20;67.80;;;;;;5062962;28;20479;-70
2021/03/05 02:42:30;;;;;;;13.02;5.30;;;4.20;67.40;;;;;;5057175;28;20126;-70
2021/03/05 02:44:58;;;;;;;14.07;4.78;;;4.20;67.90;;;;;;5060307;28;20094;-71
2021/03/05 02:47:25;;;;;;;13.90;5.10;;;4.20;67.70;;;;;;5060814;28;20443;-70
2021/03/05 02:49:55;;;;;;;15.13;5.63;;;4.30;68.10;;;;;;5058294;28;20033;-70
2021/03/05 02:52:21;;;;;;;10.93;4.68;;;4.20;67.70;;;;;;5058387;28;23589;-70
2021/03/05 02:54:52;;;;;;;12.35;5.10;;;4.20;67.90;;;;;;5058300;28;20122;-70
2021/03/05 02:57:21;;;;;;;11.20;5.40;;;4.20;69.00;;;;;;5055311;28;20094;-70
2021/03/05 02:59:48;;;;;;;11.65;4.85;;;4.20;68.90;;;;;;5060826;28;20367;-70
2021/03/05 03:02:14;;;;;;;11.52;5.22;;;4.20;68.80;;;;;;5053747;28;20037;-70
2021/03/05 03:04:43;;;;;;;15.07;4.65;;;4.20;69.30;;;;;;5061281;28;20029;-72
2021/03/05 03:07:13;;;;;;;13.90;4.55;;;4.20;69.50;;;;;;5055207;28;20036;-70
2021/03/05 03:09:40;;;;;;;12.63;4.90;;;4.20;70.10;;;;;;5060620;28;20032;-70
2021/03/05 03:12:09;;;;;;;12.45;4.70;;;4.20;70.20;;;;;;5059854;28;20259;-72
2021/03/05 03:14:38;;;;;;;12.95;4.57;;;4.20;70.80;;;;;;5061596;28;20395;-70
2021/03/05 03:17:06;;;;;;;11.98;4.70;;;4.10;70.90;;;;;;5052589;28;20471;-70
2021/03/05 03:19:33;;;;;;;14.27;4.80;;;4.20;71.30;;;;;;5066257;28;20039;-70
2021/03/05 03:22:01;;;;;;;14.65;5.47;;;4.10;71.80;;;;;;5060485;28;20033;-70
2021/03/05 03:24:26;;;;;;;13.88;5.90;;;4.10;72.40;;;;;;5052307;28;20032;-74
2021/03/05 03:26:52;;;;;;;15.48;5.55;;;4.10;72.50;;;;;;5059657;28;20044;-70
2021/03/05 03:29:18;;;;;;;14.60;6.32;;;4.10;72.60;;;;;;5055306;28;20395;-70
2021/03/05 03:31:45;;;;;;;15.95;6.10;;;4.10;73.00;;;;;;5062762;28;20028;-69
2021/03/05 03:34:12;;;;;;;16.38;6.90;;;4.10;73.50;;;;;;5057452;28;20040;-71
2021/03/05 03:36:39;;;;;;;14.05;6.47;;;4.10;74.10;;;;;;5061198;28;20025;-71
2021/03/05 03:39:07;;;;;;;17.13;7.07;;;4.10;74.70;;;;;;5063862;28;20125;-70
2021/03/05 03:41:37;;;;;;;17.98;7.40;;;4.10;75.00;;;;;;5060010;28;20060;-70
2021/03/05 03:44:05;;;;;;;18.88;7.90;;;4.00;75.60;;;;;;5058782;28;20040;-71
2021/03/05 03:46:33;;;;;;;18.08;9.13;;;4.00;76.20;;;;;;5060551;28;20037;-70
2021/03/05 03:49:06;;;;;;;18.90;9.50;;;4.00;76.50;;;;;;5061782;28;20025;-70
2021/03/05 03:51:38;;;;;;;17.77;9.70;;;4.00;77.00;;;;;;5064406;28;20033;-70
2021/03/05 03:54:04;;;;;;;19.83;9.98;;;3.90;77.30;;;;;;5060829;28;20044;-70
2021/03/05 03:56:32;;;;;;;19.73;10.57;;;3.90;78.00;;;;;;5062223;28;20074;-70
2021/03/05 03:58:59;;;;;;;19.38;11.05;;;3.80;78.50;;;;;;5053503;28;20033;-70
2021/03/05 04:01:26;;;;;;;16.30;10.82;;;3.70;79.00;;;;;;5052008;28;20492;-70
2021/03/05 04:03:53;;;;;;;25.75;11.65;;;3.70;79.40;;;;;;5060507;28;20064;-70
2021/03/05 04:06:22;;;;;;;26.15;13.70;;;3.60;79.70;;;;;;5061457;28;20082;-70
2021/03/05 04:08:50;;;;;;;23.45;10.30;;;3.60;80.10;;;;;;5062803;28;20310;-71
2021/03/05 04:11:17;;;;;;;17.73;10.45;;;3.60;80.20;;;;;;5062738;28;20033;-71
2021/03/05 04:13:43;;;;;;;17.33;10.38;;;3.60;80.30;;;;;;5063994;28;20043;-70
2021/03/05 04:16:10;;;;;;;17.42;10.50;;;3.60;80.30;;;;;;5058541;28;20452;-70
2021/03/05 04:18:40;;;;;;;23.98;11.48;;;3.50;80.30;;;;;;5066276;28;20475;-70
2021/03/05 04:21:35;;;;;;;20.35;11.13;;;3.50;80.50;;;;;;5063065;28;20476;-70
2021/03/05 04:24:04;;;;;;;19.15;12.00;;;3.40;80.70;;;;;;5059940;28;20029;-72
2021/03/05 04:26:30;;;;;;;23.08;11.55;;;3.40;81.10;;;;;;5065601;28;20116;-72
2021/03/05 04:28:56;;;;;;;20.00;12.73;;;3.30;81.40;;;;;;5068375;28;20115;-70
2021/03/05 04:31:22;;;;;;;21.88;13.00;;;3.30;81.70;;;;;;5054528;28;20482;-70
2021/03/05 04:33:47;;;;;;;21.27;12.75;;;3.30;81.60;;;;;;5062689;28;20094;-70
2021/03/05 04:36:13;;;;;;;20.73;13.40;;;3.20;81.80;;;;;;5054214;28;20404;-72
2021/03/05 04:38:39;;;;;;;22.80;13.88;;;3.30;82.00;;;;;;5061164;28;20024;-70
2021/03/05 04:41:04;;;;;;;23.88;13.90;;;3.20;82.00;;;;;;5056496;28;20412;-70
2021/03/05 04:43:30;;;;;;;19.35;12.05;;;3.20;82.00;;;;;;5055301;28;20032;-70
2021/03/05 04:45:56;;;;;;;21.42;14.73;;;3.30;81.80;;;;;;5064530;28;20051;-70
2021/03/05 04:48:21;;;;;;;22.90;14.02;;;3.30;82.00;;;;;;5064381;28;20102;-73
2021/03/05 04:50:47;;;;;;;22.10;13.38;;;3.30;82.00;;;;;;5067153;28;20094;-70
2021/03/05 04:53:12;;;;;;;19.85;13.77;;;3.30;82.00;;;;;;5062708;28;20476;-70
2021/03/05 04:55:40;;;;;;;22.63;13.55;;;3.20;82.20;;;;;;5060930;28;20115;-70
2021/03/05 04:58:06;;;;;;;24.35;14.98;;;3.20;82.20;;;;;;5063055;28;20124;-70
2021/03/05 05:00:32;;;;;;;22.23;14.50;;;3.10;82.40;;;;;;5064977;28;20075;-73
2021/03/05 05:02:58;;;;;;;22.20;13.65;;;3.10;82.60;;;;;;5055615;28;20033;-72
2021/03/05 05:05:23;;;;;;;23.17;14.55;;;3.10;82.90;;;;;;5059533;28;20036;-71
2021/03/05 05:07:49;;;;;;;23.85;14.98;;;3.00;82.90;;;;;;5060114;28;20025;-70
2021/03/05 05:10:16;;;;;;;25.17;14.07;;;2.90;83.20;;;;;;5059197;28;20564;-70
2021/03/05 05:12:41;;;;;;;20.67;14.52;;;2.90;83.30;;;;;;5055538;28;20044;-72
2021/03/05 05:15:07;;;;;;;20.58;13.43;;;2.90;83.30;;;;;;5055015;28;20040;-70
2021/03/05 05:17:33;;;;;;;21.45;14.18;;;2.90;83.50;;;;;;5056640;28;20087;-70
2021/03/05 05:19:59;;;;;;;25.88;14.30;;;2.80;83.50;;;;;;5060822;28;20035;-71
2021/03/05 05:22:24;;;;;;;25.05;15.38;;;2.80;83.80;;;;;;5060234;28;20032;-70
2021/03/05 05:24:50;;;;;;;25.63;14.77;;;2.80;83.80;;;;;;5055460;28;20045;-70
2021/03/05 05:27:16;;;;;;;24.92;15.23;;;2.70;84.00;;;;;;5051442;28;20056;-70
2021/03/05 05:29:41;;;;;;;26.13;15.60;;;2.70;84.40;;;;;;5056769;28;20029;-70
2021/03/05 05:32:07;;;;;;;24.15;15.98;;;2.60;84.70;;;;;;5055134;28;20032;-74
2021/03/05 05:34:33;;;;;;;25.65;15.73;;;2.70;84.50;;;;;;5052396;28;20223;-73
2021/03/05 05:36:58;;;;;;;24.67;16.38;;;2.70;84.70;;;;;;5053858;28;20048;-70
2021/03/05 05:39:24;;;;;;;22.58;15.93;;;2.70;84.70;;;;;;5057842;28;20029;-72
2021/03/05 05:41:50;;;;;;;25.30;16.13;;;2.70;84.80;;;;;;5056275;28;20033;-71
2021/03/05 05:44:15;;;;;;;27.13;15.60;;;2.60;84.90;;;;;;5052009;28;20037;-71
2021/03/05 05:46:42;;;;;;;27.10;17.23;;;2.60;85.00;;;;;;5053583;28;20521;-70
2021/03/05 05:49:10;;;;;;;27.13;16.27;;;2.60;85.20;;;;;;5055434;28;20025;-72
2021/03/05 05:51:39;;;;;;;31.33;17.27;;;2.60;85.40;;;;;;5057402;28;20025;-70
2021/03/05 05:54:10;;;;;;;27.05;17.33;;;2.60;85.50;;;;;;5055637;28;20052;-71
2021/03/05 05:56:40;;;;;;;26.17;16.98;;;2.50;85.70;;;;;;5051927;28;20076;-70
2021/03/05 05:59:06;;;;;;;28.23;18.17;;;2.50;85.60;;;;;;5054073;28;20036;-70
2021/03/05 06:01:34;;;;;;;30.15;17.48;;;2.50;85.50;;;;;;5057215;28;20125;-72
2021/03/05 06:04:01;;;;;;;30.90;18.00;;;2.50;85.60;;;;;;5061483;28;20376;-71
2021/03/05 06:06:28;;;;;;;28.33;18.80;;;2.40;85.70;;;;;;5049154;28;20161;-70
2021/03/05 06:08:58;;;;;;;26.67;17.77;;;2.50;85.80;;;;;;5053235;28;20738;-70
2021/03/05 06:11:38;;;;;;;29.25;18.10;;;2.40;85.80;;;;;;5030628;28;20025;-70
2021/03/05 06:14:05;;;;;;;29.90;17.90;;;2.40;85.80;;;;;;5046194;28;20348;-70
2021/03/05 06:16:31;;;;;;;32.33;17.85;;;2.40;85.70;;;;;;5061115;28;20048;-70
2021/03/05 06:19:00;;;;;;;30.05;19.30;;;2.40;85.80;;;;;;5069218;28;20443;-70
2021/03/05 06:21:37;;;;;;;26.23;17.83;;;2.40;85.80;;;;;;5038665;28;20039;-70
2021/03/05 06:24:05;;;;;;;35.47;20.63;;;2.40;85.80;;;;;;5055904;28;20044;-70
2021/03/05 06:26:46;;;;;;;33.38;19.85;;;2.30;85.90;;;;;;5063157;28;20064;-73
2021/03/05 06:29:11;;;;;;;30.45;18.52;;;2.30;86.10;;;;;;5050486;28;20052;-76
2021/03/05 06:31:37;;;;;;;33.72;20.15;;;2.30;86.10;;;;;;5046857;28;20033;-71
2021/03/05 06:34:04;;;;;;;33.13;20.05;;;2.20;86.10;;;;;;5061969;28;20047;-72
2021/03/05 06:36:30;;;;;;;28.13;18.70;;;2.20;86.20;;;;;;5061837;28;20044;-73
2021/03/05 06:38:56;;;;;;;30.63;18.77;;;2.10;86.30;;;;;;5062810;28;20110;-72
2021/03/05 06:41:30;;;;;;;35.90;19.85;;;2.20;86.30;;;;;;5064055;28;20032;-73
2021/03/05 06:43:58;;;;;;;29.83;17.77;;;2.10;86.40;;;;;;5062151;28;20552;-71
2021/03/05 06:46:37;;;;;;;30.33;18.10;;;2.10;86.50;;;;;;5057327;28;20094;-71
2021/03/05 06:49:10;;;;;;;31.65;18.83;;;2.10;86.60;;;;;;5064241;28;20048;-73
2021/03/05 06:51:37;;;;;;;33.55;19.35;;;2.10;86.50;;;;;;5050225;28;20025;-77
2021/03/05 06:54:04;;;;;;;29.55;17.63;;;2.10;86.50;;;;;;5049789;28;20452;-72
2021/03/05 06:56:32;;;;;;;39.35;20.77;;;2.10;86.60;;;;;;5054257;28;20032;-72
2021/03/05 06:58:59;;;;;;;38.75;22.85;;;2.10;86.50;;;;;;5056650;28;20036;-73
2021/03/05 07:01:25;;;;;;;37.60;22.02;;;2.10;86.70;;;;;;5057514;28;20033;-72
2021/03/05 07:04:08;;;;;;;33.85;20.23;;;2.10;86.50;;;;;;5062094;28;20040;-71
2021/03/05 07:06:33;;;;;;;40.65;22.20;;;2.10;86.40;;;;;;5064660;28;20025;-73
2021/03/05 07:08:59;;;;;;;32.50;19.98;;;2.10;86.30;;;;;;5057794;28;20031;-73
2021/03/05 07:11:39;;;;;;;31.92;17.40;;;2.10;86.30;;;;;;5052869;28;20047;-72
2021/03/05 07:14:07;;;;;;;31.73;17.60;;;2.10;86.40;;;;;;5061662;28;20052;-72
2021/03/05 07:16:47;;;;;;;31.38;17.30;;;2.20;86.20;;;;;;5053085;28;20074;-72
2021/03/05 07:19:16;;;;;;;25.52;16.27;;;2.20;86.30;;;;;;5058298;28;20040;-71
2021/03/05 07:21:45;;;;;;;33.08;16.90;;;2.20;86.30;;;;;;5059636;28;20136;-72
2021/03/05 07:24:13;;;;;;;29.80;15.50;;;2.20;86.40;;;;;;5061261;28;20033;-74
2021/03/05 07:26:43;;;;;;;24.20;14.80;;;2.20;86.30;;;;;;5061446;28;20911;-73
2021/03/05 07:29:17;;;;;;;28.50;14.80;;;2.30;86.30;;;;;;5055185;28;20025;-72
2021/03/05 07:31:44;;;;;;;31.92;15.07;;;2.30;86.20;;;;;;5054303;28;20028;-73
2021/03/05 07:34:22;;;;;;;28.00;13.80;;;2.30;86.10;;;;;;5053912;28;20132;-73
2021/03/05 07:36:50;;;;;;;29.42;13.85;;;2.40;85.90;;;;;;5062517;28;20067;-73
2021/03/05 07:39:23;;;;;;;20.45;11.88;;;2.40;85.90;;;;;;5062137;28;20037;-75
2021/03/05 07:41:51;;;;;;;25.80;12.15;;;2.50;85.80;;;;;;5059770;28;20086;-75
2021/03/05 07:44:18;;;;;;;24.50;13.10;;;2.50;85.70;;;;;;5061007;28;20043;-73
2021/03/05 07:46:44;;;;;;;22.27;11.63;;;2.50;85.80;;;;;;5059275;28;20072;-72
2021/03/05 07:49:11;;;;;;;20.50;10.68;;;2.60;85.60;;;;;;5065747;28;20029;-72
2021/03/05 07:51:38;;;;;;;26.02;11.20;;;2.60;85.40;;;;;;5064994;28;20107;-78
2021/03/05 07:54:05;;;;;;;27.02;12.25;;;2.60;85.40;;;;;;5066617;28;20066;-74
2021/03/05 07:56:40;;;;;;;24.08;11.45;;;2.60;85.20;;;;;;5067180;28;20100;-73
2021/03/05 07:59:06;;;;;;;24.38;11.25;;;2.80;85.10;;;;;;5063510;28;20036;-74
2021/03/05 08:01:50;;;;;;;20.38;10.85;;;2.90;84.80;;;;;;5063296;28;20024;-73
2021/03/05 08:04:16;;;;;;;24.02;9.60;;;2.90;84.50;;;;;;5061145;28;20533;-73
2021/03/05 08:06:42;;;;;;;24.80;11.23;;;3.00;84.20;;;;;;5062225;28;20056;-74
2021/03/05 08:09:08;;;;;;;21.20;9.20;;;3.00;84.10;;;;;;5066388;28;20040;-74
2021/03/05 08:11:39;;;;;;;28.40;10.23;;;3.10;83.90;;;;;;5063070;28;20028;-74
2021/03/05 08:14:21;;;;;;;23.52;9.73;;;3.10;83.70;;;;;;5055986;28;20076;-73
2021/03/05 08:16:48;;;;;;;19.60;8.68;;;3.30;83.30;;;;;;5062448;28;20041;-73
2021/03/05 08:19:15;;;;;;;23.30;9.63;;;3.40;82.70;;;;;;5068212;28;20029;-77
2021/03/05 08:22:02;;;;;;;25.80;8.95;;;3.50;82.70;;;;;;5065896;28;20032;-72
2021/03/05 08:24:29;;;;;;;23.40;8.05;;;3.50;82.40;;;;;;5059521;28;20025;-72
2021/03/05 08:26:57;;;;;;;23.25;10.20;;;3.60;81.80;;;;;;5061146;28;20348;-72
2021/03/05 08:30:12;;;;;;;23.13;8.52;;;3.70;82.00;;;;;;5055467;28;20048;-72
2021/03/05 08:32:50;;;;;;;24.52;8.43;;;4.00;81.40;;;;;;5021209;28;20117;-71
2021/03/05 08:35:37;;;;;;;21.42;9.75;;;4.10;80.60;;;;;;5023149;28;20132;-73
2021/03/05 08:38:15;;;;;;;24.48;8.55;;;4.20;78.90;;;;;;5049502;28;20044;-75
2021/03/05 08:40:44;;;;;;;23.90;9.75;;;4.20;78.10;;;;;;5057358;28;20041;-74
2021/03/05 08:43:09;;;;;;;22.63;9.65;;;4.40;77.90;;;;;;5061835;28;20131;-73
2021/03/05 08:45:53;;;;;;;19.65;8.50;;;4.40;77.30;;;;;;5054823;28;20104;-72
2021/03/05 08:48:34;;;;;;;19.80;8.40;;;4.40;77.40;;;;;;5059415;28;20052;-72
2021/03/05 08:51:13;;;;;;;16.83;8.05;;;4.60;76.80;;;;;;5054881;28;20789;-73
2021/03/05 08:53:46;;;;;;;18.45;8.30;;;4.60;77.20;;;;;;5050172;28;20148;-73
2021/03/05 08:56:16;;;;;;;18.73;7.57;;;4.70;75.40;;;;;;5057830;28;20033;-73
2021/03/05 08:58:42;;;;;;;17.70;8.45;;;4.90;74.90;;;;;;5056470;28;20029;-76
2021/03/05 09:01:24;;;;;;;20.52;7.55;;;5.00;74.40;;;;;;5067961;28;20139;-72
2021/03/05 09:03:50;;;;;;;18.20;6.85;;;5.00;73.70;;;;;;5069949;28;20090;-77
2021/03/05 09:06:16;;;;;;;15.00;6.85;;;5.10;73.60;;;;;;5053235;28;20048;-74
2021/03/05 09:08:41;;;;;;;15.57;6.07;;;5.30;71.30;;;;;;5058906;28;20472;-73
2021/03/05 09:11:09;;;;;;;14.45;5.15;;;5.20;68.30;;;;;;5054583;28;20036;-72
2021/03/05 09:13:36;;;;;;;10.85;3.63;;;5.30;66.30;;;;;;5060892;28;20067;-74
2021/03/05 09:16:03;;;;;;;11.30;4.00;;;5.40;61.40;;;;;;5056547;28;20101;-74
2021/03/05 09:18:30;;;;;;;9.35;3.30;;;5.70;59.90;;;;;;5062454;28;20137;-73
2021/03/05 09:21:02;;;;;;;8.88;3.55;;;5.60;57.50;;;;;;5060963;28;20040;-71
2021/03/05 09:23:33;;;;;;;12.50;3.58;;;5.80;57.30;;;;;;5061701;28;20063;-71
2021/03/05 09:26:07;;;;;;;8.05;3.35;;;6.00;56.60;;;;;;5059800;28;20399;-75
2021/03/05 09:28:37;;;;;;;13.02;3.30;;;5.80;56.50;;;;;;5053412;28;20036;-70
2021/03/05 09:31:03;;;;;;;8.80;4.00;;;5.60;54.80;;;;;;5051625;28;20133;-73
2021/03/05 09:33:33;;;;;;;8.10;3.28;;;5.60;55.80;;;;;;5057416;28;20478;-73
2021/03/05 09:36:01;;;;;;;11.45;3.38;;;5.70;54.60;;;;;;5052011;28;20025;-71
2021/03/05 09:38:27;;;;;;;12.23;4.00;;;5.70;53.20;;;;;;5035803;28;20035;-72
2021/03/05 09:40:53;;;;;;;9.25;3.78;;;5.70;54.80;;;;;;5051743;28;20022;-72
2021/03/05 09:43:18;;;;;;;12.65;3.83;;;5.70;50.40;;;;;;5040813;28;20115;-72
2021/03/05 09:45:50;;;;;;;5.93;2.90;;;5.70;51.40;;;;;;5058755;28;20134;-72
2021/03/05 09:48:33;;;;;;;9.45;3.28;;;5.60;48.60;;;;;;5051556;28;20041;-71
2021/03/05 09:51:04;;;;;;;9.25;3.45;;;5.80;50.30;;;;;;5057122;28;20040;-70
2021/03/05 09:53:31;;;;;;;12.60;3.95;;;6.20;50.30;;;;;;5044572;28;20127;-79
2021/03/05 09:56:08;;;;;;;6.32;2.70;;;6.40;49.30;;;;;;5061138;28;20067;-72
2021/03/05 09:58:35;;;;;;;7.95;2.50;;;6.70;48.60;;;;;;5052570;28;20032;-71
2021/03/05 10:01:03;;;;;;;8.77;2.97;;;6.50;45.60;;;;;;5054430;28;20080;-77
2021/03/05 10:03:29;;;;;;;8.82;3.50;;;6.20;47.80;;;;;;5030266;28;20038;-72
2021/03/05 10:05:55;;;;;;;6.65;2.70;;;6.30;46.60;;;;;;5035622;28;20033;-76
2021/03/05 10:08:25;;;;;;;10.02;2.53;;;6.50;47.20;;;;;;5039116;28;20036;-72
2021/03/05 10:11:04;;;;;;;6.72;2.35;;;6.80;47.30;;;;;;5041148;28;20041;-72
2021/03/05 10:13:51;;;;;;;7.90;3.03;;;6.90;46.10;;;;;;5039366;28;20053;-73
2021/03/05 10:16:32;;;;;;;8.98;2.90;;;6.80;46.20;;;;;;5049968;28;20082;-72
2021/03/05 10:19:13;;;;;;;6.03;2.60;;;7.00;47.40;;;;;;5054544;28;20034;-72
2021/03/05 10:21:49;;;;;;;6.47;2.47;;;7.10;45.00;;;;;;5051031;28;20035;-76
2021/03/05 10:24:21;;;;;;;7.70;2.53;;;7.10;43.80;;;;;;5053128;28;20036;-75
2021/03/05 10:27:14;;;;;;;4.78;2.03;;;7.40;44.70;;;;;;5052741;28;20375;-71
2021/03/05 10:29:48;;;;;;;5.28;2.58;;;7.80;45.10;;;;;;5048218;28;20037;-72
2021/03/05 10:32:23;;;;;;;9.20;3.33;;;7.90;43.10;;;;;;5050836;28;20436;-73
2021/03/05 10:34:50;;;;;;;6.05;2.47;;;7.30;42.50;;;;;;5057187;28;20052;-73
2021/03/05 10:37:17;;;;;;;6.28;2.72;;;7.20;44.10;;;;;;5048925;28;20448;-72
2021/03/05 10:39:44;;;;;;;6.43;2.50;;;6.70;44.50;;;;;;5052614;28;20464;-75
2021/03/05 10:42:15;;;;;;;7.32;2.63;;;7.00;45.40;;;;;;5055324;28;20353;-72
2021/03/05 10:44:42;;;;;;;5.85;2.90;;;7.20;42.90;;;;;;5056166;28;20043;-73
2021/03/05 10:47:10;;;;;;;7.60;2.70;;;7.10;43.60;;;;;;5057610;28;20072;-72
2021/03/05 10:49:38;;;;;;;5.60;2.90;;;6.60;43.90;;;;;;5058468;28;20589;-74
2021/03/05 10:52:04;;;;;;;7.15;2.58;;;6.80;45.90;;;;;;5055157;28;20391;-73
2021/03/05 10:54:30;;;;;;;8.32;3.20;;;6.90;45.20;;;;;;5055806;28;20064;-72
2021/03/05 10:56:56;;;;;;;12.18;3.10;;;6.90;45.30;;;;;;5052052;28;20028;-73
2021/03/05 10:59:25;;;;;;;6.53;2.97;;;7.10;46.60;;;;;;5026447;28;20047;-78
2021/03/05 11:01:54;;;;;;;7.85;3.50;;;7.30;45.60;;;;;;5031672;28;20044;-75
2021/03/05 11:04:26;;;;;;;8.73;3.67;;;7.50;45.50;;;;;;5066342;28;20044;-75
2021/03/05 11:06:55;;;;;;;7.15;3.22;;;7.20;45.10;;;;;;5054157;28;20032;-74
2021/03/05 11:09:24;;;;;;;10.35;4.00;;;7.00;45.60;;;;;;5052525;28;20060;-73
2021/03/05 11:11:50;;;;;;;7.03;3.20;;;7.10;45.00;;;;;;5053605;28;20040;-72
2021/03/05 11:14:16;;;;;;;7.05;3.00;;;7.30;46.50;;;;;;5055175;28;20601;-74
2021/03/05 11:16:41;;;;;;;9.43;3.58;;;7.40;44.80;;;;;;5055933;28;20024;-73
2021/03/05 11:19:08;;;;;;;8.73;3.13;;;7.40;44.50;;;;;;5060403;28;20045;-73
2021/03/05 11:21:34;;;;;;;8.90;3.40;;;7.20;45.60;;;;;;5053348;28;20025;-71
2021/03/05 11:24:00;;;;;;;8.38;3.90;;;6.80;43.20;;;;;;5057894;28;20036;-72
2021/03/05 11:26:26;;;;;;;8.43;3.47;;;6.20;44.50;;;;;;5051306;28;20132;-74
2021/03/05 11:28:53;;;;;;;7.57;3.35;;;6.10;45.40;;;;;;5050219;28;20442;-73
2021/03/05 11:31:19;;;;;;;9.07;3.78;;;6.00;46.40;;;;;;5051845;28;20029;-72
2021/03/05 11:33:45;;;;;;;9.50;4.10;;;6.20;47.50;;;;;;5052598;28;20392;-74
2021/03/05 11:36:12;;;;;;;11.45;3.67;;;6.20;46.50;;;;;;5050808;28;21155;-76
2021/03/05 11:38:40;;;;;;;8.05;3.90;;;6.20;45.80;;;;;;5057113;28;20028;-72
2021/03/05 11:41:05;;;;;;;9.50;4.93;;;6.60;45.60;;;;;;5053147;28;20507;-73
2021/03/05 11:43:31;;;;;;;10.38;4.57;;;7.00;47.10;;;;;;5053595;28;20033;-74
2021/03/05 11:45:57;;;;;;;9.73;4.90;;;7.60;46.20;;;;;;5053007;28;20400;-73
2021/03/05 11:48:23;;;;;;;8.55;3.85;;;7.80;45.90;;;;;;5053056;28;20482;-75
2021/03/05 11:50:49;;;;;;;8.52;3.55;;;8.10;42.40;;;;;;5052702;28;20043;-77
2021/03/05 11:53:15;;;;;;;7.22;3.42;;;8.40;44.30;;;;;;5048598;28;20528;-72
2021/03/05 11:55:40;;;;;;;10.15;3.75;;;8.60;41.80;;;;;;5053815;28;20450;-74
2021/03/05 11:58:06;;;;;;;7.35;4.28;;;8.10;43.60;;;;;;5049163;28;20543;-73
2021/03/05 12:00:32;;;;;;;11.25;4.45;;;8.20;46.30;;;;;;5038025;28;20056;-77
2021/03/05 12:02:58;;;;;;;11.40;4.85;;;7.60;44.50;;;;;;5038221;28;20079;-72
2021/03/05 12:05:24;;;;;;;13.23;5.72;;;6.90;46.90;;;;;;5039377;28;20073;-76
2021/03/05 12:07:50;;;;;;;9.65;4.70;;;6.50;49.00;;;;;;5051764;28;20531;-76
2021/03/05 12:10:15;;;;;;;9.68;5.70;;;6.60;49.70;;;;;;5043146;28;20047;-71
2021/03/05 12:12:41;;;;;;;9.35;5.22;;;6.60;49.50;;;;;;5058437;28;20035;-74
2021/03/05 12:15:07;;;;;;;9.65;4.60;;;6.30;49.60;;;;;;5050915;28;20033;-81
2021/03/05 12:17:33;;;;;;;12.13;7.57;;;6.20;49.80;;;;;;5052386;28;20047;-74
2021/03/05 12:19:59;;;;;;;11.63;4.78;;;6.20;49.80;;;;;;5054565;28;20104;-72
2021/03/05 12:22:25;;;;;;;11.57;4.25;;;6.40;49.90;;;;;;5058956;28;21396;-72
2021/03/05 12:24:50;;;;;;;9.20;4.28;;;6.40;48.80;;;;;;5051628;28;20452;-73
2021/03/05 12:27:16;;;;;;;8.18;3.67;;;6.70;48.90;;;;;;5056830;28;20056;-73
2021/03/05 12:29:42;;;;;;;8.15;3.65;;;6.70;46.40;;;;;;5057036;28;20489;-75
2021/03/05 12:32:08;;;;;;;8.02;3.70;;;6.60;45.70;;;;;;5055524;28;20044;-74
2021/03/05 12:34:33;;;;;;;10.82;4.50;;;6.70;47.00;;;;;;5056992;28;20120;-75
2021/03/05 12:37:01;;;;;;;7.03;3.10;;;7.00;46.40;;;;;;5056132;28;20068;-73
2021/03/05 12:39:27;;;;;;;8.95;3.90;;;6.90;44.80;;;;;;5054333;28;20040;-73
2021/03/05 12:41:52;;;;;;;7.65;3.80;;;6.90;45.60;;;;;;5038645;28;20052;-72
2021/03/05 12:44:18;;;;;;;9.95;4.30;;;7.00;45.20;;;;;;5043541;28;20045;-76
2021/03/05 12:46:44;;;;;;;10.00;4.35;;;7.10;46.10;;;;;;5036552;28;20045;-72
2021/03/05 12:49:10;;;;;;;8.88;3.92;;;7.20;46.80;;;;;;5040171;28;20471;-72
2021/03/05 12:51:36;;;;;;;6.22;3.40;;;7.50;47.30;;;;;;5044622;28;20865;-73
2021/03/05 12:54:01;;;;;;;9.10;3.88;;;7.40;45.70;;;;;;5035101;28;21389;-73